Time;durP1;ratioP1;P1;durP2;ratioP2;P2;SDS_P1;SDS_P2;PMS_P1;PMS_P2;Temp;Humidity;BMP_temperature;BMP_pressure;BME280_temperature;BME280_humidity;BME280_pressure;Samples;Min_cycle;Max_cycle;Signal;HPM_P1;HPM_P2
2023/03/08 00:01:21;;;;;;;13.02;8.82;;;5.60;99.90;;;;;;5032470;28;20214;-84
2023/03/08 00:03:53;;;;;;;8.55;7.35;;;5.70;99.90;;;;;;5032189;28;20248;-84
2023/03/08 00:06:22;;;;;;;9.10;7.10;;;5.80;99.90;;;;;;5032060;28;20256;-84
2023/03/08 00:08:54;;;;;;;9.57;8.35;;;5.90;99.90;;;;;;5031109;28;20309;-84
2023/03/08 00:11:22;;;;;;;9.98;7.53;;;6.00;99.90;;;;;;5032240;28;20221;-84
2023/03/08 00:13:50;;;;;;;7.93;7.13;;;6.20;99.90;;;;;;5031619;28;20217;-84
2023/03/08 00:16:20;;;;;;;10.15;7.32;;;6.30;99.90;;;;;;5032100;28;20218;-84
2023/03/08 00:18:48;;;;;;;7.30;6.45;;;6.30;99.90;;;;;;5031473;28;20210;-84
2023/03/08 00:21:18;;;;;;;9.23;6.60;;;6.30;99.90;;;;;;5031749;28;20214;-84
2023/03/08 00:23:47;;;;;;;13.02;6.68;;;6.40;99.90;;;;;;5031992;28;20229;-84
2023/03/08 00:26:15;;;;;;;11.35;6.68;;;6.40;99.90;;;;;;5032032;28;20217;-83
2023/03/08 00:28:45;;;;;;;7.45;6.70;;;6.40;99.90;;;;;;5031138;28;20221;-83
2023/03/08 00:31:14;;;;;;;8.55;6.93;;;6.40;99.90;;;;;;5031951;28;20218;-84
2023/03/08 00:33:44;;;;;;;8.15;7.10;;;6.40;99.90;;;;;;5031548;28;20207;-84
2023/03/08 00:36:15;;;;;;;8.10;6.28;;;6.40;99.90;;;;;;5031662;28;20214;-84
2023/03/08 00:38:43;;;;;;;7.18;6.47;;;6.40;99.90;;;;;;5031181;28;20209;-84
2023/03/08 00:41:12;;;;;;;8.00;6.93;;;6.40;99.90;;;;;;5032687;28;20210;-83
2023/03/08 00:43:41;;;;;;;8.88;7.05;;;6.40;99.90;;;;;;5033694;28;20202;-84
2023/03/08 00:46:10;;;;;;;10.55;6.68;;;6.40;99.90;;;;;;5033574;28;20203;-83
2023/03/08 00:48:38;;;;;;;8.27;6.10;;;6.40;99.90;;;;;;5032763;28;20317;-84
2023/03/08 00:51:09;;;;;;;9.95;5.82;;;6.50;99.90;;;;;;5033932;28;20203;-84
2023/03/08 00:53:37;;;;;;;15.30;5.78;;;6.50;99.90;;;;;;5033884;28;20206;-84
2023/03/08 00:56:06;;;;;;;5.47;4.97;;;6.50;99.90;;;;;;5033389;28;20221;-84
2023/03/08 00:58:36;;;;;;;6.10;5.05;;;6.50;99.90;;;;;;5032967;28;20210;-83
2023/03/08 01:01:05;;;;;;;5.85;4.68;;;6.50;99.90;;;;;;5033247;28;20266;-83
2023/03/08 01:03:34;;;;;;;5.38;4.80;;;6.40;99.90;;;;;;5033989;28;20237;-82
2023/03/08 01:06:09;;;;;;;4.57;4.15;;;6.50;99.90;;;;;;5033579;28;20214;-81
2023/03/08 01:08:38;;;;;;;5.78;4.72;;;6.40;99.90;;;;;;5032649;28;20206;-82
2023/03/08 01:11:07;;;;;;;5.35;4.10;;;6.50;99.90;;;;;;5033166;28;20203;-82
2023/03/08 01:13:36;;;;;;;4.40;3.92;;;6.40;99.90;;;;;;5032952;28;20210;-82
2023/03/08 01:16:04;;;;;;;4.88;4.32;;;6.40;99.90;;;;;;5033157;28;20205;-82
2023/03/08 01:18:32;;;;;;;4.95;4.38;;;6.40;99.90;;;;;;5032944;28;20214;-82
2023/03/08 01:21:03;;;;;;;6.40;5.38;;;6.40;99.90;;;;;;5033028;28;20230;-81
2023/03/08 01:23:32;;;;;;;9.18;5.68;;;6.30;99.90;;;;;;5033028;28;20209;-83
2023/03/08 01:26:02;;;;;;;4.60;4.00;;;6.30;99.90;;;;;;5032414;28;20210;-82
2023/03/08 01:28:30;;;;;;;16.05;4.50;;;6.30;99.90;;;;;;5032369;28;20211;-82
2023/03/08 01:31:03;;;;;;;5.43;4.28;;;6.30;99.90;;;;;;5033081;28;20230;-82
2023/03/08 01:33:32;;;;;;;4.60;4.03;;;6.30;99.90;;;;;;5032804;28;20206;-83
2023/03/08 01:36:02;;;;;;;5.90;4.93;;;6.20;99.90;;;;;;5033109;28;20206;-83
2023/03/08 01:38:32;;;;;;;4.78;3.90;;;6.20;99.90;;;;;;5032198;28;20226;-83
2023/03/08 01:41:02;;;;;;;5.70;4.50;;;6.20;99.90;;;;;;5032708;28;20233;-83
2023/03/08 01:43:32;;;;;;;5.82;4.63;;;6.20;99.90;;;;;;5033060;28;20202;-83
2023/03/08 01:46:14;;;;;;;6.55;4.82;;;6.20;99.90;;;;;;5032822;28;20210;-83
2023/03/08 01:48:47;;;;;;;5.35;4.85;;;6.20;99.90;;;;;;5031628;28;20467;-83
2023/03/08 01:51:20;;;;;;;4.60;4.20;;;6.10;99.90;;;;;;5032915;28;20297;-83
2023/03/08 01:53:50;;;;;;;7.32;5.28;;;6.10;99.90;;;;;;5032999;28;20214;-83
2023/03/08 01:56:20;;;;;;;6.03;4.68;;;6.10;99.90;;;;;;5032876;28;20209;-83
2023/03/08 01:58:51;;;;;;;6.68;5.60;;;6.10;99.90;;;;;;5032296;28;20202;-83
2023/03/08 02:01:21;;;;;;;6.53;4.55;;;6.10;99.90;;;;;;5032384;28;20207;-83
2023/03/08 02:03:49;;;;;;;5.95;5.35;;;6.00;99.90;;;;;;5033068;28;20230;-83
2023/03/08 02:06:20;;;;;;;5.57;5.07;;;6.00;99.90;;;;;;5032754;28;20211;-83
2023/03/08 02:08:50;;;;;;;5.18;4.43;;;6.00;99.90;;;;;;5031827;28;20214;-83
2023/03/08 02:11:21;;;;;;;4.80;4.40;;;6.00;99.90;;;;;;5032488;28;20234;-83
2023/03/08 02:13:50;;;;;;;7.32;5.78;;;6.00;99.90;;;;;;5032594;28;20207;-83
2023/03/08 02:16:20;;;;;;;6.03;5.43;;;6.00;99.90;;;;;;5032603;28;20249;-84
2023/03/08 02:18:53;;;;;;;5.80;4.45;;;6.00;99.90;;;;;;5032158;28;20210;-83
2023/03/08 02:21:22;;;;;;;7.70;5.05;;;6.00;99.90;;;;;;5032409;28;20209;-83
2023/03/08 02:23:52;;;;;;;6.65;5.45;;;6.00;99.90;;;;;;5032662;28;20203;-83
2023/03/08 02:26:23;;;;;;;5.65;4.70;;;6.00;99.90;;;;;;5032355;28;20214;-83
2023/03/08 02:28:51;;;;;;;9.18;5.50;;;6.10;99.90;;;;;;5031639;28;20211;-84
2023/03/08 02:31:20;;;;;;;7.43;5.05;;;6.00;99.90;;;;;;5032132;28;20226;-83
2023/03/08 02:33:48;;;;;;;7.68;5.20;;;6.00;99.90;;;;;;5032155;28;20221;-83
2023/03/08 02:36:16;;;;;;;8.40;6.07;;;6.00;99.90;;;;;;5032369;28;20206;-83
2023/03/08 02:38:45;;;;;;;5.82;5.22;;;6.00;99.90;;;;;;5034651;28;20202;-82
2023/03/08 02:41:15;;;;;;;9.35;6.35;;;6.00;99.90;;;;;;5036124;28;20217;-82
2023/03/08 02:43:44;;;;;;;12.60;6.45;;;6.00;99.90;;;;;;5036229;28;20217;-83
2023/03/08 02:46:12;;;;;;;6.85;6.15;;;6.00;99.90;;;;;;5035750;28;20206;-83
2023/03/08 02:48:41;;;;;;;5.88;5.28;;;6.00;99.90;;;;;;5035495;28;20206;-83
2023/03/08 02:51:09;;;;;;;9.18;6.55;;;5.90;99.90;;;;;;5035495;28;20226;-83
2023/03/08 02:53:37;;;;;;;8.20;5.63;;;5.90;99.90;;;;;;5035939;28;20262;-83
2023/03/08 02:56:06;;;;;;;7.53;6.00;;;5.90;99.90;;;;;;5035865;28;20213;-83
2023/03/08 02:58:36;;;;;;;7.75;6.00;;;5.90;99.90;;;;;;5035542;28;20214;-83
2023/03/08 03:01:04;;;;;;;5.25;4.75;;;5.90;99.90;;;;;;5035768;28;20233;-83
2023/03/08 03:03:32;;;;;;;7.13;5.43;;;5.90;99.90;;;;;;5035826;28;20202;-83
2023/03/08 03:06:00;;;;;;;6.32;5.75;;;5.90;99.90;;;;;;5035521;28;20214;-83
2023/03/08 03:08:30;;;;;;;6.28;5.57;;;5.80;99.90;;;;;;5034952;28;20293;-82
2023/03/08 03:10:58;;;;;;;9.80;6.53;;;5.80;99.90;;;;;;5035456;28;20246;-83
2023/03/08 03:13:26;;;;;;;8.57;5.82;;;5.90;99.90;;;;;;5035445;28;20265;-83
2023/03/08 03:15:56;;;;;;;6.93;5.10;;;5.90;99.90;;;;;;5035710;28;20214;-83
2023/03/08 03:18:25;;;;;;;5.70;5.13;;;5.80;99.90;;;;;;5034972;28;20242;-83
2023/03/08 03:20:53;;;;;;;5.97;5.43;;;5.80;99.90;;;;;;5035298;28;20237;-83
2023/03/08 03:23:24;;;;;;;5.90;5.35;;;5.90;99.90;;;;;;5035462;28;20217;-83
2023/03/08 03:25:52;;;;;;;8.05;5.95;;;5.80;99.90;;;;;;5035386;28;20214;-83
2023/03/08 03:28:20;;;;;;;10.30;5.90;;;5.80;99.90;;;;;;5034773;28;20209;-83
2023/03/08 03:30:49;;;;;;;7.95;5.85;;;5.90;99.90;;;;;;5034872;28;20226;-82
2023/03/08 03:33:19;;;;;;;10.68;6.20;;;5.80;99.90;;;;;;5035197;28;20248;-82
2023/03/08 03:35:47;;;;;;;7.00;5.88;;;5.90;99.90;;;;;;5034940;28;20206;-82
2023/03/08 03:38:15;;;;;;;7.60;6.22;;;5.90;99.90;;;;;;5034531;28;20245;-82
2023/03/08 03:40:44;;;;;;;7.28;6.18;;;5.90;99.90;;;;;;5034940;28;20218;-82
2023/03/08 03:43:12;;;;;;;7.75;6.55;;;5.90;99.90;;;;;;5034959;28;20206;-82
2023/03/08 03:45:40;;;;;;;9.70;7.03;;;6.00;99.90;;;;;;5034792;28;20221;-82
2023/03/08 03:48:08;;;;;;;6.95;5.50;;;6.00;99.90;;;;;;5034095;28;20213;-83
2023/03/08 03:50:41;;;;;;;7.30;5.78;;;6.00;99.90;;;;;;5034727;28;20232;-83
2023/03/08 03:53:10;;;;;;;6.82;6.15;;;6.00;99.90;;;;;;5034763;28;20215;-83
2023/03/08 03:55:38;;;;;;;9.65;6.25;;;6.00;99.90;;;;;;5034862;28;20206;-83
2023/03/08 03:58:06;;;;;;;6.93;5.75;;;6.00;99.90;;;;;;5034028;28;20218;-83
2023/03/08 04:00:35;;;;;;;7.00;5.68;;;6.00;99.90;;;;;;5034575;28;20218;-83
2023/03/08 04:03:03;;;;;;;6.05;5.55;;;6.00;99.90;;;;;;5034610;28;20199;-83
2023/03/08 04:05:32;;;;;;;6.93;6.22;;;6.00;99.90;;;;;;5034639;28;20210;-83
2023/03/08 04:08:01;;;;;;;6.60;5.93;;;6.00;99.90;;;;;;5033767;28;20233;-83
2023/03/08 04:10:31;;;;;;;8.48;5.78;;;6.00;99.90;;;;;;5034025;28;20229;-83
2023/03/08 04:13:00;;;;;;;9.00;6.72;;;6.00;99.90;;;;;;5034411;28;20217;-83
2023/03/08 04:15:28;;;;;;;7.82;6.65;;;6.00;99.90;;;;;;5034397;28;20211;-83
2023/03/08 04:17:57;;;;;;;8.32;6.38;;;6.00;99.90;;;;;;5033866;28;20266;-83
2023/03/08 04:20:31;;;;;;;5.20;4.40;;;6.00;99.90;;;;;;5034681;28;20254;-83
2023/03/08 04:22:59;;;;;;;7.65;5.85;;;6.00;99.90;;;;;;5034123;28;20208;-83
2023/03/08 04:25:29;;;;;;;9.27;6.15;;;6.00;99.90;;;;;;5034284;28;20217;-83
2023/03/08 04:27:57;;;;;;;6.28;5.32;;;6.10;99.90;;;;;;5033671;28;20215;-83
2023/03/08 04:30:29;;;;;;;9.07;5.93;;;6.10;99.90;;;;;;5033937;28;20222;-83
2023/03/08 04:32:58;;;;;;;5.35;4.85;;;6.10;99.90;;;;;;5033886;28;20310;-83
2023/03/08 04:35:26;;;;;;;7.00;5.63;;;6.10;99.90;;;;;;5033747;28;20209;-84
2023/03/08 04:37:57;;;;;;;6.93;5.53;;;6.10;99.90;;;;;;5033595;28;20212;-83
2023/03/08 04:40:26;;;;;;;7.80;6.78;;;6.10;99.90;;;;;;5033922;28;20226;-83
2023/03/08 04:42:56;;;;;;;5.75;4.82;;;6.00;99.90;;;;;;5033761;28;20202;-83
2023/03/08 04:45:24;;;;;;;6.18;4.88;;;6.00;99.90;;;;;;5033889;28;20290;-83
2023/03/08 04:47:52;;;;;;;6.78;5.40;;;5.90;99.90;;;;;;5032995;28;20230;-82
2023/03/08 04:50:21;;;;;;;5.72;5.18;;;5.90;99.90;;;;;;5033402;28;20261;-83
2023/03/08 04:52:49;;;;;;;7.50;6.00;;;5.90;99.90;;;;;;5033886;28;20220;-83
2023/03/08 04:55:18;;;;;;;7.43;6.22;;;5.90;99.90;;;;;;5033647;28;20210;-83
2023/03/08 04:57:46;;;;;;;8.57;5.90;;;5.90;99.90;;;;;;5033402;28;20215;-83
2023/03/08 05:00:17;;;;;;;6.05;5.47;;;5.90;99.90;;;;;;5033143;28;20227;-83
2023/03/08 05:02:45;;;;;;;12.70;6.45;;;5.80;99.90;;;;;;5033123;28;20208;-83
2023/03/08 05:05:13;;;;;;;11.60;5.80;;;5.70;99.90;;;;;;5033085;28;20220;-82
2023/03/08 05:07:42;;;;;;;6.30;5.65;;;5.70;99.90;;;;;;5032430;28;20210;-83
2023/03/08 05:10:11;;;;;;;6.75;5.95;;;5.70;99.90;;;;;;5033011;28;20282;-83
2023/03/08 05:12:39;;;;;;;6.97;6.05;;;5.70;99.90;;;;;;5033470;28;20222;-83
2023/03/08 05:15:08;;;;;;;12.50;5.63;;;5.80;99.90;;;;;;5033191;28;20199;-83
2023/03/08 05:17:38;;;;;;;6.45;5.15;;;5.70;99.90;;;;;;5032619;28;20392;-83
2023/03/08 05:20:08;;;;;;;7.32;6.20;;;5.70;99.90;;;;;;5033277;28;20233;-83
2023/03/08 05:22:36;;;;;;;7.15;6.07;;;5.70;99.90;;;;;;5033102;28;20207;-83
2023/03/08 05:25:25;;;;;;;6.22;5.63;;;5.70;99.90;;;;;;5033371;28;20212;-83
2023/03/08 05:27:54;;;;;;;8.23;6.95;;;5.70;99.90;;;;;;5032958;28;20207;-83
2023/03/08 05:30:22;;;;;;;7.90;6.30;;;5.60;99.90;;;;;;5033060;28;20241;-83
2023/03/08 05:32:52;;;;;;;9.15;6.95;;;5.60;99.90;;;;;;5032870;28;20218;-83
2023/03/08 05:35:20;;;;;;;6.20;5.60;;;5.60;99.90;;;;;;5032605;28;20217;-83
2023/03/08 05:37:48;;;;;;;8.15;6.68;;;5.60;99.90;;;;;;5032434;28;20210;-83
2023/03/08 05:40:16;;;;;;;8.65;7.32;;;5.60;99.90;;;;;;5032641;28;20254;-83
2023/03/08 05:42:45;;;;;;;8.02;6.47;;;5.60;99.90;;;;;;5032738;28;20289;-83
2023/03/08 05:45:13;;;;;;;11.88;7.40;;;5.60;99.90;;;;;;5032760;28;20217;-83
2023/03/08 05:47:41;;;;;;;7.20;6.28;;;5.50;99.90;;;;;;5031942;28;20233;-83
2023/03/08 05:50:12;;;;;;;7.53;5.90;;;5.50;99.90;;;;;;5032566;28;20233;-83
2023/03/08 05:52:41;;;;;;;11.63;7.15;;;5.50;99.90;;;;;;5032894;28;20226;-83
2023/03/08 05:55:10;;;;;;;11.18;6.30;;;5.40;99.90;;;;;;5032937;28;20214;-83
2023/03/08 05:57:39;;;;;;;11.60;6.85;;;5.40;99.90;;;;;;5031880;28;20217;-83
2023/03/08 06:00:12;;;;;;;6.63;5.45;;;5.40;99.90;;;;;;5032425;28;20230;-83
2023/03/08 06:02:40;;;;;;;7.05;6.15;;;5.40;99.90;;;;;;5032469;28;20245;-83
2023/03/08 06:05:09;;;;;;;8.30;6.43;;;5.40;99.90;;;;;;5032311;28;20210;-83
2023/03/08 06:07:39;;;;;;;8.70;6.28;;;5.40;99.90;;;;;;5032336;28;20218;-83
2023/03/08 06:10:09;;;;;;;9.13;7.07;;;5.40;99.90;;;;;;5032080;28;20230;-83
2023/03/08 06:12:37;;;;;;;9.80;6.30;;;5.40;99.90;;;;;;5033332;28;20230;-83
2023/03/08 06:15:06;;;;;;;9.75;6.60;;;5.40;99.90;;;;;;5036466;28;20213;-83
2023/03/08 06:17:35;;;;;;;6.63;6.03;;;5.50;99.90;;;;;;5036113;28;20213;-83
2023/03/08 06:20:03;;;;;;;9.43;6.43;;;5.50;99.90;;;;;;5036672;28;20222;-83
2023/03/08 06:22:31;;;;;;;7.65;6.85;;;5.50;99.90;;;;;;5036364;28;20206;-83
2023/03/08 06:25:02;;;;;;;6.97;6.05;;;5.60;99.90;;;;;;5036186;28;20211;-83
2023/03/08 06:27:30;;;;;;;7.28;6.20;;;5.60;99.90;;;;;;5035771;28;20210;-83
2023/03/08 06:29:58;;;;;;;10.82;6.15;;;5.70;99.90;;;;;;5036209;28;20237;-83
2023/03/08 06:32:26;;;;;;;8.15;6.03;;;5.80;99.90;;;;;;5035917;28;20226;-85
2023/03/08 06:34:55;;;;;;;5.75;5.20;;;6.00;99.90;;;;;;5051481;28;20225;-84
2023/03/08 06:37:23;;;;;;;8.00;6.20;;;6.00;99.90;;;;;;5054162;28;20205;-84
2023/03/08 06:39:51;;;;;;;7.75;5.82;;;6.00;99.90;;;;;;5059199;28;20218;-83
2023/03/08 06:42:21;;;;;;;5.60;5.00;;;6.10;99.90;;;;;;5039175;28;20198;-83
2023/03/08 06:45:06;;;;;;;14.30;7.13;;;6.10;99.90;;;;;;5034965;28;20202;-83
2023/03/08 06:47:34;;;;;;;6.63;6.00;;;6.10;99.90;;;;;;5035546;28;20209;-83
2023/03/08 06:50:03;;;;;;;14.82;7.03;;;6.20;99.90;;;;;;5035904;28;20230;-83
2023/03/08 06:52:36;;;;;;;5.63;5.18;;;6.20;99.90;;;;;;5067602;28;20213;-84
2023/03/08 06:55:06;;;;;;;8.60;5.95;;;6.20;99.90;;;;;;5055452;28;20201;-84
2023/03/08 06:57:35;;;;;;;7.05;6.32;;;6.30;99.90;;;;;;5070715;28;20201;-84
2023/03/08 07:00:05;;;;;;;7.63;5.35;;;6.30;99.90;;;;;;5063042;28;20221;-84
2023/03/08 07:02:34;;;;;;;5.57;5.03;;;6.40;99.90;;;;;;5055833;28;20198;-84
2023/03/08 07:05:02;;;;;;;8.10;6.20;;;6.40;99.90;;;;;;5054773;28;20217;-84
2023/03/08 07:07:31;;;;;;;6.18;5.63;;;6.50;99.90;;;;;;5053157;28;20205;-85
2023/03/08 07:09:59;;;;;;;6.10;5.47;;;6.50;99.90;;;;;;5034015;28;20299;-84
2023/03/08 07:12:29;;;;;;;6.05;5.35;;;6.60;99.90;;;;;;5048978;28;20221;-81
2023/03/08 07:14:59;;;;;;;6.40;5.13;;;6.60;99.90;;;;;;5053911;28;20210;-81
2023/03/08 07:17:27;;;;;;;5.70;5.15;;;6.70;99.90;;;;;;5053703;28;20205;-81
2023/03/08 07:19:56;;;;;;;5.95;5.30;;;6.70;99.90;;;;;;5053627;28;20236;-81
2023/03/08 07:22:24;;;;;;;7.95;6.30;;;6.80;99.90;;;;;;5054166;28;20209;-81
2023/03/08 07:24:52;;;;;;;6.25;5.40;;;7.00;99.90;;;;;;5053922;28;20216;-81
2023/03/08 07:27:20;;;;;;;9.40;5.28;;;7.00;99.90;;;;;;5053928;28;20205;-81
2023/03/08 07:29:49;;;;;;;6.10;5.25;;;7.10;99.90;;;;;;5053755;28;20232;-81
2023/03/08 07:32:19;;;;;;;8.80;5.60;;;7.10;99.90;;;;;;5053634;28;20264;-82
2023/03/08 07:34:47;;;;;;;6.35;5.03;;;7.10;99.90;;;;;;5054083;28;20210;-81
2023/03/08 07:37:18;;;;;;;4.85;4.38;;;7.10;99.90;;;;;;5053291;28;20208;-82
2023/03/08 07:39:46;;;;;;;6.28;4.63;;;7.20;99.90;;;;;;5053615;28;20230;-84
2023/03/08 07:42:14;;;;;;;8.57;4.90;;;7.30;99.90;;;;;;5058197;28;20208;-84
2023/03/08 07:44:46;;;;;;;5.93;5.25;;;7.40;99.90;;;;;;5073491;28;20212;-84
2023/03/08 07:47:14;;;;;;;8.25;5.15;;;7.40;99.90;;;;;;5072364;28;20212;-84
2023/03/08 07:49:44;;;;;;;5.18;4.68;;;7.50;99.90;;;;;;5053436;28;20225;-84
2023/03/08 07:52:16;;;;;;;5.28;4.25;;;7.60;99.90;;;;;;5053707;28;20304;-84
2023/03/08 07:54:47;;;;;;;4.78;4.32;;;7.70;99.90;;;;;;5053305;28;20202;-85
2023/03/08 07:57:16;;;;;;;6.13;4.38;;;7.80;99.90;;;;;;5050650;28;20214;-84
2023/03/08 07:59:44;;;;;;;4.82;4.43;;;7.90;99.90;;;;;;5036270;28;20237;-85
2023/03/08 08:02:13;;;;;;;4.57;4.18;;;7.90;99.90;;;;;;5033977;28;20289;-84
2023/03/08 08:04:42;;;;;;;3.92;3.63;;;8.00;99.90;;;;;;4999656;28;1173365;-84
2023/03/08 08:07:14;;;;;;;4.15;3.75;;;8.10;99.90;;;;;;5053243;28;20198;-85
2023/03/08 08:09:43;;;;;;;3.95;3.45;;;8.20;99.90;;;;;;5053833;28;20221;-84
2023/03/08 08:12:11;;;;;;;7.35;3.90;;;8.40;99.80;;;;;;5054020;28;20208;-85
2023/03/08 08:14:40;;;;;;;4.07;3.63;;;8.40;99.50;;;;;;5053700;28;20210;-85
2023/03/08 08:17:09;;;;;;;4.45;4.05;;;8.40;99.20;;;;;;5037905;28;20199;-81
2023/03/08 08:19:40;;;;;;;6.70;3.70;;;8.60;99.40;;;;;;5033968;28;20305;-81
2023/03/08 08:22:08;;;;;;;5.10;3.83;;;8.70;98.40;;;;;;5034261;28;20213;-85
2023/03/08 08:24:38;;;;;;;3.25;2.97;;;8.80;98.00;;;;;;5033996;28;20199;-84
2023/03/08 08:27:07;;;;;;;11.50;3.50;;;8.90;98.00;;;;;;5033102;28;20206;-84
2023/03/08 08:29:36;;;;;;;4.07;3.55;;;8.90;97.80;;;;;;5034202;28;20305;-82
2023/03/08 08:32:05;;;;;;;5.60;3.83;;;9.00;97.10;;;;;;5034022;28;20217;-81
2023/03/08 08:34:34;;;;;;;6.03;3.35;;;9.10;97.50;;;;;;5046130;28;20229;-82
2023/03/08 08:37:02;;;;;;;3.60;2.92;;;9.20;96.70;;;;;;5052625;28;20206;-82
2023/03/08 08:39:31;;;;;;;2.95;2.75;;;9.30;96.40;;;;;;5053580;28;20256;-81
2023/03/08 08:42:00;;;;;;;3.80;3.40;;;9.40;96.70;;;;;;5050639;28;20198;-81
2023/03/08 08:44:29;;;;;;;3.20;2.90;;;9.60;95.90;;;;;;5052052;28;20202;-81
2023/03/08 08:46:58;;;;;;;5.72;3.47;;;9.70;96.00;;;;;;5041962;28;20198;-82
2023/03/08 08:49:26;;;;;;;3.42;3.13;;;9.80;95.40;;;;;;5033483;28;20309;-85
2023/03/08 08:51:55;;;;;;;3.50;3.20;;;10.00;94.80;;;;;;5037161;28;20199;-85
2023/03/08 08:54:23;;;;;;;4.32;3.60;;;10.20;94.20;;;;;;5052416;28;20217;-85
2023/03/08 08:56:51;;;;;;;3.08;2.88;;;10.20;93.30;;;;;;5052763;28;20284;-85
2023/03/08 08:59:21;;;;;;;3.92;3.58;;;10.20;93.30;;;;;;5053241;28;20234;-82
2023/03/08 09:01:50;;;;;;;4.13;3.22;;;10.20;93.30;;;;;;5043807;28;20210;-85
2023/03/08 09:04:19;;;;;;;3.83;3.25;;;10.20;93.30;;;;;;5032903;28;20293;-85
2023/03/08 09:06:48;;;;;;;5.38;4.13;;;10.20;93.20;;;;;;5033998;28;20207;-85
2023/03/08 09:09:17;;;;;;;3.35;3.05;;;10.30;93.60;;;;;;5045783;28;20305;-87
2023/03/08 09:11:47;;;;;;;4.30;3.90;;;10.40;93.00;;;;;;5042217;28;20199;-82
2023/03/08 09:14:24;;;;;;;3.85;3.25;;;10.50;92.90;;;;;;5039310;28;20221;-85
2023/03/08 09:16:52;;;;;;;4.95;4.47;;;10.50;92.20;;;;;;5041942;28;20311;-85
2023/03/08 09:19:21;;;;;;;6.93;4.03;;;10.60;92.70;;;;;;5032760;28;20254;-86
2023/03/08 09:21:49;;;;;;;4.28;3.67;;;10.50;92.40;;;;;;5032339;28;20202;-86
2023/03/08 09:24:17;;;;;;;3.75;3.42;;;10.50;92.40;;;;;;5032610;28;20213;-87
2023/03/08 09:26:46;;;;;;;3.70;3.38;;;10.50;92.50;;;;;;5032342;28;20202;-86
2023/03/08 09:29:14;;;;;;;3.65;3.35;;;10.50;92.20;;;;;;5032309;28;20238;-84
2023/03/08 09:31:45;;;;;;;4.20;3.80;;;10.50;92.20;;;;;;5032736;28;20233;-84
2023/03/08 09:34:14;;;;;;;3.65;3.28;;;10.60;92.30;;;;;;5046901;28;20240;-85
2023/03/08 09:36:42;;;;;;;5.22;3.75;;;10.70;92.30;;;;;;5051946;28;20205;-86
2023/03/08 09:39:12;;;;;;;5.63;4.50;;;11.00;92.30;;;;;;5063781;28;20244;-85
2023/03/08 09:41:52;;;;;;;4.78;4.15;;;11.10;91.90;;;;;;5065757;28;20202;-85
2023/03/08 09:44:48;;;;;;;4.93;4.53;;;11.20;91.70;;;;;;5052136;28;20235;-85
2023/03/08 09:47:39;;;;;;;4.75;3.63;;;11.20;91.40;;;;;;5042894;28;20194;-84
2023/03/08 09:50:19;;;;;;;5.03;3.75;;;11.30;91.30;;;;;;5032995;28;20206;-82
2023/03/08 09:52:52;;;;;;;6.25;3.72;;;11.30;91.00;;;;;;5032464;28;20205;-82
2023/03/08 09:55:28;;;;;;;4.38;3.97;;;11.40;90.90;;;;;;5031920;28;20306;-84
2023/03/08 09:58:03;;;;;;;6.25;4.45;;;11.50;91.10;;;;;;5031678;28;20281;-84
2023/03/08 10:00:33;;;;;;;5.15;4.53;;;11.40;91.30;;;;;;5037539;28;20231;-85
2023/03/08 10:03:29;;;;;;;4.20;3.80;;;11.30;91.20;;;;;;5048178;28;20201;-84
2023/03/08 10:06:03;;;;;;;5.03;3.88;;;11.20;91.30;;;;;;5051789;28;20209;-83
2023/03/08 10:08:38;;;;;;;3.83;3.42;;;11.20;91.40;;;;;;5051729;28;20236;-84
2023/03/08 10:11:16;;;;;;;3.47;3.17;;;11.10;91.40;;;;;;5052042;28;20212;-84
2023/03/08 10:13:49;;;;;;;3.53;3.13;;;10.90;90.70;;;;;;5048879;28;20229;-84
2023/03/08 10:16:26;;;;;;;3.42;2.88;;;10.80;91.00;;;;;;5033859;28;20202;-84
2023/03/08 10:19:01;;;;;;;4.22;3.83;;;10.70;91.50;;;;;;5031421;28;20206;-82
2023/03/08 10:21:32;;;;;;;7.00;4.15;;;10.60;91.80;;;;;;5031785;28;20210;-82
2023/03/08 10:24:07;;;;;;;6.53;3.97;;;10.50;91.90;;;;;;5034066;28;20199;-84
2023/03/08 10:26:35;;;;;;;9.65;4.40;;;10.50;92.40;;;;;;5052290;28;20216;-82
2023/03/08 10:29:03;;;;;;;4.53;4.13;;;10.40;92.50;;;;;;5046707;28;20249;-82
2023/03/08 10:31:33;;;;;;;5.38;4.88;;;10.50;92.70;;;;;;5051603;28;20205;-82
2023/03/08 10:34:10;;;;;;;6.07;4.50;;;10.40;92.90;;;;;;5051173;28;20225;-82
2023/03/08 10:36:48;;;;;;;7.18;4.97;;;10.40;92.90;;;;;;5052461;28;20212;-82
2023/03/08 10:39:16;;;;;;;5.13;4.63;;;10.40;93.50;;;;;;5051295;28;20228;-82
2023/03/08 10:41:48;;;;;;;8.40;5.85;;;10.40;93.60;;;;;;5051855;28;20210;-84
2023/03/08 10:44:29;;;;;;;7.10;5.38;;;10.40;93.70;;;;;;5051772;28;20198;-82
2023/03/08 10:46:58;;;;;;;7.43;5.10;;;10.40;94.00;;;;;;5051955;28;20213;-82
2023/03/08 10:49:27;;;;;;;10.02;5.45;;;10.40;94.20;;;;;;5035783;28;20231;-82
2023/03/08 10:51:58;;;;;;;7.07;6.03;;;10.40;94.30;;;;;;5032556;28;20210;-82
2023/03/08 10:54:27;;;;;;;7.13;5.95;;;10.50;94.70;;;;;;5050119;28;20217;-82
2023/03/08 10:57:01;;;;;;;7.13;5.85;;;10.50;94.80;;;;;;5051478;28;20323;-84
2023/03/08 10:59:32;;;;;;;6.10;5.50;;;10.50;95.20;;;;;;5053313;28;20248;-84
2023/03/08 11:02:02;;;;;;;7.47;6.20;;;10.60;95.20;;;;;;5056078;28;20209;-84
2023/03/08 11:04:32;;;;;;;9.60;7.03;;;10.60;95.30;;;;;;5055373;28;20194;-84
2023/03/08 11:07:11;;;;;;;10.30;7.63;;;10.60;95.50;;;;;;5049078;28;20293;-83
2023/03/08 11:09:39;;;;;;;14.52;6.50;;;10.70;95.60;;;;;;5036551;28;20218;-84
2023/03/08 11:12:23;;;;;;;12.63;8.07;;;10.80;95.80;;;;;;5061392;28;20198;-87
2023/03/08 11:14:52;;;;;;;6.80;6.20;;;10.90;95.80;;;;;;5044923;28;20216;-83
2023/03/08 11:17:28;;;;;;;10.77;8.15;;;11.20;95.90;;;;;;5054789;28;20210;-83
2023/03/08 11:20:09;;;;;;;7.97;7.18;;;11.40;95.50;;;;;;5041947;28;20218;-83
2023/03/08 11:23:04;;;;;;;11.95;8.30;;;11.60;95.40;;;;;;5051164;28;20205;-83
2023/03/08 11:25:38;;;;;;;9.32;7.60;;;11.50;95.30;;;;;;5050108;28;20282;-86
2023/03/08 11:28:33;;;;;;;13.43;9.20;;;11.60;95.70;;;;;;5043999;28;20225;-85
2023/03/08 11:31:14;;;;;;;9.23;7.28;;;11.70;95.50;;;;;;5027920;28;20292;-84
2023/03/08 11:34:15;;;;;;;7.25;6.53;;;11.60;95.20;;;;;;5035244;28;20214;-85
2023/03/08 11:36:51;;;;;;;7.35;6.60;;;11.50;95.50;;;;;;5034860;28;20236;-84
2023/03/08 11:39:27;;;;;;;10.32;7.47;;;11.40;95.50;;;;;;5034839;28;20260;-83
2023/03/08 11:42:03;;;;;;;7.88;7.18;;;11.30;95.50;;;;;;5034944;28;20205;-84
2023/03/08 11:44:59;;;;;;;12.95;8.32;;;11.30;95.80;;;;;;5034912;28;20213;-83
2023/03/08 11:47:44;;;;;;;8.73;7.20;;;11.30;95.80;;;;;;5034691;28;20241;-84
2023/03/08 11:50:20;;;;;;;8.20;7.35;;;11.40;96.10;;;;;;5034543;28;20286;-83
2023/03/08 11:53:04;;;;;;;9.23;7.15;;;11.30;95.90;;;;;;5033233;28;20210;-83
2023/03/08 11:55:43;;;;;;;9.68;6.40;;;11.20;95.90;;;;;;5034963;28;20220;-83
2023/03/08 11:58:21;;;;;;;7.55;6.70;;;11.10;96.00;;;;;;5033955;28;20266;-83
2023/03/08 12:00:56;;;;;;;11.02;7.72;;;11.10;96.10;;;;;;5034492;28;20284;-83
2023/03/08 12:03:32;;;;;;;8.30;6.70;;;11.00;96.10;;;;;;5034476;28;20214;-83
2023/03/08 12:06:09;;;;;;;8.93;7.20;;;10.90;96.30;;;;;;5034377;28;20218;-83
2023/03/08 12:09:01;;;;;;;11.88;7.50;;;11.00;96.40;;;;;;5034425;28;20275;-83
2023/03/08 12:11:33;;;;;;;9.25;7.38;;;11.00;96.70;;;;;;5033149;28;20210;-83
2023/03/08 12:14:12;;;;;;;8.35;7.03;;;10.90;96.80;;;;;;5034549;28;20297;-83
2023/03/08 12:16:47;;;;;;;14.13;7.28;;;10.90;96.90;;;;;;5033628;28;20230;-83
2023/03/08 12:19:25;;;;;;;10.73;6.93;;;10.80;97.50;;;;;;5034618;28;20328;-82
2023/03/08 12:22:02;;;;;;;9.88;8.00;;;10.70;97.70;;;;;;5034873;28;20292;-83
2023/03/08 12:24:44;;;;;;;7.47;6.78;;;10.70;98.10;;;;;;5034647;28;20216;-83
2023/03/08 12:27:18;;;;;;;9.60;7.68;;;10.60;98.50;;;;;;5033565;28;20210;-83
2023/03/08 12:29:57;;;;;;;9.13;8.18;;;10.50;98.80;;;;;;5033809;28;20226;-82
2023/03/08 12:32:26;;;;;;;16.40;9.25;;;10.50;99.20;;;;;;5033950;28;20210;-83
2023/03/08 12:35:03;;;;;;;15.65;8.85;;;10.50;99.40;;;;;;5034377;28;20226;-82
2023/03/08 12:37:31;;;;;;;10.68;8.18;;;10.40;99.90;;;;;;5033336;28;20210;-82
2023/03/08 12:40:07;;;;;;;16.67;9.00;;;10.40;99.90;;;;;;5033679;28;20326;-84
2023/03/08 12:42:38;;;;;;;17.20;8.30;;;10.30;99.90;;;;;;5033733;28;20210;-83
2023/03/08 12:45:27;;;;;;;13.07;9.00;;;10.20;99.90;;;;;;5033870;28;20221;-82
2023/03/08 12:48:00;;;;;;;11.23;9.07;;;10.20;99.90;;;;;;5033080;28;20210;-83
2023/03/08 12:50:30;;;;;;;28.92;10.20;;;10.10;99.90;;;;;;5033187;28;20230;-83
2023/03/08 12:52:58;;;;;;;16.15;8.13;;;10.10;99.90;;;;;;5033928;28;20236;-83
2023/03/08 12:55:31;;;;;;;12.60;10.30;;;10.00;99.90;;;;;;5033851;28;20226;-83
2023/03/08 12:58:02;;;;;;;11.05;9.13;;;10.00;99.90;;;;;;5033241;28;20207;-83
2023/03/08 13:00:32;;;;;;;11.68;8.93;;;10.00;99.90;;;;;;5033604;28;20253;-83
2023/03/08 13:03:07;;;;;;;10.60;8.05;;;10.10;99.90;;;;;;5033358;28;20216;-83
2023/03/08 13:05:37;;;;;;;10.23;9.20;;;10.00;99.90;;;;;;5033327;28;20217;-83
2023/03/08 13:08:32;;;;;;;10.27;9.27;;;10.00;99.90;;;;;;5032864;28;20233;-83
2023/03/08 13:11:12;;;;;;;10.85;8.10;;;10.00;99.90;;;;;;5033211;28;20241;-83
2023/03/08 13:13:49;;;;;;;9.32;8.43;;;10.00;99.90;;;;;;5033197;28;20230;-82